sensor_id;sensor_type;location;lat;lon;timestamp;P1;durP1;ratioP1;P2;durP2;ratioP2
35364;SDS011;21464;48.112;11.530;2023-04-08T00:00:13;8.93;;;8.03;;
35364;SDS011;21464;48.112;11.530;2023-04-08T00:02:40;9.13;;;8.20;;
35364;SDS011;21464;48.112;11.530;2023-04-08T00:05:06;8.70;;;7.53;;
35364;SDS011;21464;48.112;11.530;2023-04-08T00:07:33;10.47;;;9.10;;
35364;SDS011;21464;48.112;11.530;2023-04-08T00:09:59;10.00;;;8.97;;
35364;SDS011;21464;48.112;11.530;2023-04-08T00:12:25;9.00;;;8.00;;
35364;SDS011;21464;48.112;11.530;2023-04-08T00:14:52;8.23;;;7.43;;
35364;SDS011;21464;48.112;11.530;2023-04-08T00:17:18;9.33;;;7.97;;
35364;SDS011;21464;48.112;11.530;2023-04-08T00:19:44;9.07;;;7.67;;
35364;SDS011;21464;48.112;11.530;2023-04-08T00:22:10;8.43;;;7.63;;
35364;SDS011;21464;48.112;11.530;2023-04-08T00:24:37;8.53;;;7.70;;
35364;SDS011;21464;48.112;11.530;2023-04-08T00:27:03;9.27;;;8.00;;
35364;SDS011;21464;48.112;11.530;2023-04-08T00:29:29;7.07;;;6.37;;
35364;SDS011;21464;48.112;11.530;2023-04-08T00:31:55;8.47;;;7.67;;
35364;SDS011;21464;48.112;11.530;2023-04-08T00:34:22;9.67;;;7.43;;
35364;SDS011;21464;48.112;11.530;2023-04-08T00:36:49;6.63;;;6.03;;
35364;SDS011;21464;48.112;11.530;2023-04-08T00:39:15;7.63;;;6.83;;
35364;SDS011;21464;48.112;11.530;2023-04-08T00:41:41;7.27;;;6.57;;
35364;SDS011;21464;48.112;11.530;2023-04-08T00:44:08;7.87;;;7.07;;
35364;SDS011;21464;48.112;11.530;2023-04-08T00:46:35;8.63;;;7.73;;
35364;SDS011;21464;48.112;11.530;2023-04-08T00:49:02;9.10;;;6.90;;
35364;SDS011;21464;48.112;11.530;2023-04-08T00:51:29;7.80;;;7.00;;
35364;SDS011;21464;48.112;11.530;2023-04-08T00:53:56;7.73;;;6.87;;
35364;SDS011;21464;48.112;11.530;2023-04-08T00:56:22;7.23;;;6.60;;
35364;SDS011;21464;48.112;11.530;2023-04-08T00:58:49;7.93;;;6.93;;
35364;SDS011;21464;48.112;11.530;2023-04-08T01:01:25;9.37;;;7.47;;
35364;SDS011;21464;48.112;11.530;2023-04-08T01:06:59;7.30;;;6.60;;
35364;SDS011;21464;48.112;11.530;2023-04-08T01:09:29;8.60;;;7.10;;
35364;SDS011;21464;48.112;11.530;2023-04-08T01:11:57;7.93;;;7.10;;
35364;SDS011;21464;48.112;11.530;2023-04-08T01:14:25;5.73;;;5.23;;
35364;SDS011;21464;48.112;11.530;2023-04-08T01:16:56;8.20;;;7.40;;
35364;SDS011;21464;48.112;11.530;2023-04-08T01:19:28;8.57;;;6.87;;
35364;SDS011;21464;48.112;11.530;2023-04-08T01:22:04;7.27;;;6.57;;
35364;SDS011;21464;48.112;11.530;2023-04-08T01:24:56;8.40;;;7.50;;
35364;SDS011;21464;48.112;11.530;2023-04-08T01:27:26;8.23;;;7.33;;
35364;SDS011;21464;48.112;11.530;2023-04-08T01:29:53;8.43;;;6.63;;
35364;SDS011;21464;48.112;11.530;2023-04-08T01:32:20;8.70;;;7.63;;
35364;SDS011;21464;48.112;11.530;2023-04-08T01:34:47;7.90;;;7.00;;
35364;SDS011;21464;48.112;11.530;2023-04-08T01:37:13;8.27;;;6.80;;
35364;SDS011;21464;48.112;11.530;2023-04-08T01:39:40;8.63;;;7.03;;
35364;SDS011;21464;48.112;11.530;2023-04-08T01:42:07;7.67;;;6.73;;
35364;SDS011;21464;48.112;11.530;2023-04-08T01:44:33;8.23;;;7.33;;
35364;SDS011;21464;48.112;11.530;2023-04-08T01:47:00;8.90;;;7.80;;
35364;SDS011;21464;48.112;11.530;2023-04-08T01:49:27;9.40;;;8.40;;
35364;SDS011;21464;48.112;11.530;2023-04-08T01:51:55;8.40;;;7.57;;
35364;SDS011;21464;48.112;11.530;2023-04-08T01:54:21;8.50;;;6.93;;
35364;SDS011;21464;48.112;11.530;2023-04-08T01:56:48;10.97;;;7.40;;
35364;SDS011;21464;48.112;11.530;2023-04-08T01:59:16;8.60;;;7.70;;
35364;SDS011;21464;48.112;11.530;2023-04-08T02:01:44;8.57;;;7.20;;
35364;SDS011;21464;48.112;11.530;2023-04-08T02:04:12;9.87;;;8.53;;
35364;SDS011;21464;48.112;11.530;2023-04-08T02:06:38;9.80;;;8.60;;
35364;SDS011;21464;48.112;11.530;2023-04-08T02:09:05;8.80;;;7.90;;
35364;SDS011;21464;48.112;11.530;2023-04-08T02:11:32;9.23;;;8.33;;
35364;SDS011;21464;48.112;11.530;2023-04-08T02:13:58;9.73;;;8.40;;
35364;SDS011;21464;48.112;11.530;2023-04-08T02:19:35;10.70;;;8.50;;
35364;SDS011;21464;48.112;11.530;2023-04-08T02:22:21;10.73;;;8.67;;
35364;SDS011;21464;48.112;11.530;2023-04-08T02:25:11;8.33;;;7.23;;
35364;SDS011;21464;48.112;11.530;2023-04-08T02:27:39;9.53;;;8.43;;
35364;SDS011;21464;48.112;11.530;2023-04-08T02:30:06;9.00;;;8.13;;
35364;SDS011;21464;48.112;11.530;2023-04-08T02:32:35;10.23;;;9.13;;
35364;SDS011;21464;48.112;11.530;2023-04-08T02:35:02;9.07;;;8.13;;
35364;SDS011;21464;48.112;11.530;2023-04-08T02:37:29;9.80;;;8.80;;
35364;SDS011;21464;48.112;11.530;2023-04-08T02:39:56;10.37;;;8.80;;
35364;SDS011;21464;48.112;11.530;2023-04-08T02:42:24;10.33;;;8.87;;
35364;SDS011;21464;48.112;11.530;2023-04-08T02:47:35;9.97;;;9.00;;
35364;SDS011;21464;48.112;11.530;2023-04-08T02:50:01;11.23;;;8.90;;
35364;SDS011;21464;48.112;11.530;2023-04-08T02:52:27;10.30;;;8.00;;
35364;SDS011;21464;48.112;11.530;2023-04-08T02:54:54;11.63;;;8.90;;
35364;SDS011;21464;48.112;11.530;2023-04-08T02:57:20;12.00;;;8.30;;
35364;SDS011;21464;48.112;11.530;2023-04-08T02:59:46;12.50;;;8.73;;
35364;SDS011;21464;48.112;11.530;2023-04-08T03:02:12;10.90;;;9.37;;
35364;SDS011;21464;48.112;11.530;2023-04-08T03:04:39;10.77;;;9.53;;
35364;SDS011;21464;48.112;11.530;2023-04-08T03:07:05;11.17;;;9.97;;
35364;SDS011;21464;48.112;11.530;2023-04-08T03:09:31;9.87;;;8.80;;
35364;SDS011;21464;48.112;11.530;2023-04-08T03:11:57;10.70;;;9.13;;
35364;SDS011;21464;48.112;11.530;2023-04-08T03:14:24;10.43;;;7.63;;
35364;SDS011;21464;48.112;11.530;2023-04-08T03:16:50;10.70;;;9.57;;
35364;SDS011;21464;48.112;11.530;2023-04-08T03:19:16;9.97;;;8.67;;
35364;SDS011;21464;48.112;11.530;2023-04-08T03:21:43;10.50;;;8.77;;
35364;SDS011;21464;48.112;11.530;2023-04-08T03:24:09;11.50;;;9.53;;
35364;SDS011;21464;48.112;11.530;2023-04-08T03:26:35;10.57;;;8.90;;
35364;SDS011;21464;48.112;11.530;2023-04-08T03:29:01;15.47;;;10.50;;
35364;SDS011;21464;48.112;11.530;2023-04-08T03:31:28;11.13;;;9.97;;
35364;SDS011;21464;48.112;11.530;2023-04-08T03:33:54;11.20;;;10.07;;
35364;SDS011;21464;48.112;11.530;2023-04-08T03:36:20;11.77;;;10.13;;
35364;SDS011;21464;48.112;11.530;2023-04-08T03:38:46;11.37;;;10.10;;
35364;SDS011;21464;48.112;11.530;2023-04-08T03:41:12;11.93;;;10.43;;
35364;SDS011;21464;48.112;11.530;2023-04-08T03:43:39;13.13;;;10.17;;
35364;SDS011;21464;48.112;11.530;2023-04-08T03:46:05;13.13;;;10.07;;
35364;SDS011;21464;48.112;11.530;2023-04-08T03:48:31;13.43;;;11.03;;
35364;SDS011;21464;48.112;11.530;2023-04-08T03:50:57;12.37;;;11.07;;
35364;SDS011;21464;48.112;11.530;2023-04-08T03:53:24;12.97;;;10.70;;
35364;SDS011;21464;48.112;11.530;2023-04-08T03:55:52;13.30;;;11.30;;
35364;SDS011;21464;48.112;11.530;2023-04-08T03:58:19;15.00;;;11.27;;
35364;SDS011;21464;48.112;11.530;2023-04-08T04:00:45;11.67;;;10.47;;
35364;SDS011;21464;48.112;11.530;2023-04-08T04:03:11;13.47;;;12.07;;
35364;SDS011;21464;48.112;11.530;2023-04-08T04:05:38;13.57;;;10.77;;
35364;SDS011;21464;48.112;11.530;2023-04-08T04:08:04;12.10;;;10.90;;
35364;SDS011;21464;48.112;11.530;2023-04-08T04:10:31;13.53;;;10.90;;
35364;SDS011;21464;48.112;11.530;2023-04-08T04:12:57;14.93;;;11.37;;
35364;SDS011;21464;48.112;11.530;2023-04-08T04:15:23;15.53;;;11.50;;
35364;SDS011;21464;48.112;11.530;2023-04-08T04:17:49;13.57;;;11.53;;
35364;SDS011;21464;48.112;11.530;2023-04-08T04:20:16;14.07;;;11.70;;
35364;SDS011;21464;48.112;11.530;2023-04-08T04:22:42;14.43;;;11.90;;
35364;SDS011;21464;48.112;11.530;2023-04-08T04:25:09;12.63;;;10.67;;
35364;SDS011;21464;48.112;11.530;2023-04-08T04:27:35;15.07;;;12.97;;
35364;SDS011;21464;48.112;11.530;2023-04-08T04:30:02;13.53;;;11.23;;
35364;SDS011;21464;48.112;11.530;2023-04-08T04:32:29;16.43;;;12.60;;
35364;SDS011;21464;48.112;11.530;2023-04-08T04:34:55;13.00;;;11.63;;
35364;SDS011;21464;48.112;11.530;2023-04-08T04:37:21;15.13;;;13.53;;
35364;SDS011;21464;48.112;11.530;2023-04-08T04:39:48;17.53;;;13.83;;
35364;SDS011;21464;48.112;11.530;2023-04-08T04:42:14;14.40;;;12.43;;
35364;SDS011;21464;48.112;11.530;2023-04-08T04:44:40;15.80;;;13.70;;
35364;SDS011;21464;48.112;11.530;2023-04-08T04:47:07;13.63;;;12.20;;
35364;SDS011;21464;48.112;11.530;2023-04-08T04:49:33;18.53;;;14.30;;
35364;SDS011;21464;48.112;11.530;2023-04-08T04:51:59;13.50;;;12.03;;
35364;SDS011;21464;48.112;11.530;2023-04-08T04:54:26;17.37;;;13.57;;
35364;SDS011;21464;48.112;11.530;2023-04-08T04:56:52;16.53;;;13.40;;
35364;SDS011;21464;48.112;11.530;2023-04-08T04:59:18;14.70;;;12.57;;
35364;SDS011;21464;48.112;11.530;2023-04-08T05:01:44;15.43;;;13.27;;
35364;SDS011;21464;48.112;11.530;2023-04-08T05:04:11;16.73;;;13.70;;
35364;SDS011;21464;48.112;11.530;2023-04-08T05:06:37;15.13;;;13.53;;
35364;SDS011;21464;48.112;11.530;2023-04-08T05:09:03;16.70;;;14.63;;
35364;SDS011;21464;48.112;11.530;2023-04-08T05:11:30;15.80;;;14.10;;
35364;SDS011;21464;48.112;11.530;2023-04-08T05:13:56;18.73;;;15.40;;
35364;SDS011;21464;48.112;11.530;2023-04-08T05:16:22;18.83;;;13.83;;
35364;SDS011;21464;48.112;11.530;2023-04-08T05:18:48;17.30;;;13.97;;
35364;SDS011;21464;48.112;11.530;2023-04-08T05:21:14;16.93;;;14.00;;
35364;SDS011;21464;48.112;11.530;2023-04-08T05:23:41;16.07;;;13.77;;
35364;SDS011;21464;48.112;11.530;2023-04-08T05:26:07;18.10;;;14.57;;
35364;SDS011;21464;48.112;11.530;2023-04-08T05:28:34;16.03;;;13.40;;
35364;SDS011;21464;48.112;11.530;2023-04-08T05:31:00;17.10;;;14.53;;
35364;SDS011;21464;48.112;11.530;2023-04-08T05:33:26;16.90;;;14.53;;
35364;SDS011;21464;48.112;11.530;2023-04-08T05:35:52;16.67;;;14.40;;
35364;SDS011;21464;48.112;11.530;2023-04-08T05:38:19;17.03;;;15.07;;
35364;SDS011;21464;48.112;11.530;2023-04-08T05:40:45;18.77;;;15.47;;
35364;SDS011;21464;48.112;11.530;2023-04-08T05:43:11;16.20;;;13.80;;
35364;SDS011;21464;48.112;11.530;2023-04-08T05:45:37;18.13;;;15.03;;
35364;SDS011;21464;48.112;11.530;2023-04-08T05:48:04;19.23;;;15.97;;
35364;SDS011;21464;48.112;11.530;2023-04-08T05:50:30;19.63;;;16.10;;
35364;SDS011;21464;48.112;11.530;2023-04-08T05:52:56;16.37;;;14.20;;
35364;SDS011;21464;48.112;11.530;2023-04-08T05:55:23;19.03;;;15.50;;
35364;SDS011;21464;48.112;11.530;2023-04-08T05:57:49;18.50;;;15.00;;
35364;SDS011;21464;48.112;11.530;2023-04-08T06:00:15;17.30;;;15.50;;
35364;SDS011;21464;48.112;11.530;2023-04-08T06:02:42;19.70;;;16.03;;
35364;SDS011;21464;48.112;11.530;2023-04-08T06:05:08;15.93;;;13.53;;
35364;SDS011;21464;48.112;11.530;2023-04-08T06:07:35;16.70;;;14.73;;
35364;SDS011;21464;48.112;11.530;2023-04-08T06:10:01;15.87;;;14.07;;
35364;SDS011;21464;48.112;11.530;2023-04-08T06:12:27;16.63;;;14.23;;
35364;SDS011;21464;48.112;11.530;2023-04-08T06:14:54;17.03;;;14.60;;
35364;SDS011;21464;48.112;11.530;2023-04-08T06:17:21;17.27;;;13.47;;
35364;SDS011;21464;48.112;11.530;2023-04-08T06:19:47;16.30;;;14.50;;
35364;SDS011;21464;48.112;11.530;2023-04-08T06:22:13;14.73;;;13.20;;
35364;SDS011;21464;48.112;11.530;2023-04-08T06:24:40;14.77;;;13.13;;
35364;SDS011;21464;48.112;11.530;2023-04-08T06:27:06;15.30;;;13.53;;
35364;SDS011;21464;48.112;11.530;2023-04-08T06:29:32;15.03;;;13.53;;
35364;SDS011;21464;48.112;11.530;2023-04-08T06:31:59;15.20;;;13.60;;
35364;SDS011;21464;48.112;11.530;2023-04-08T06:34:25;18.73;;;14.40;;
35364;SDS011;21464;48.112;11.530;2023-04-08T06:36:51;17.87;;;15.17;;
35364;SDS011;21464;48.112;11.530;2023-04-08T06:39:17;15.10;;;13.60;;
35364;SDS011;21464;48.112;11.530;2023-04-08T06:41:45;15.83;;;14.10;;
35364;SDS011;21464;48.112;11.530;2023-04-08T06:44:31;16.57;;;14.27;;
35364;SDS011;21464;48.112;11.530;2023-04-08T06:46:57;16.37;;;14.67;;
35364;SDS011;21464;48.112;11.530;2023-04-08T06:49:23;16.77;;;14.97;;
35364;SDS011;21464;48.112;11.530;2023-04-08T06:51:51;18.93;;;15.00;;
35364;SDS011;21464;48.112;11.530;2023-04-08T06:54:18;17.67;;;15.57;;
35364;SDS011;21464;48.112;11.530;2023-04-08T06:56:44;18.13;;;15.80;;
35364;SDS011;21464;48.112;11.530;2023-04-08T06:59:10;18.83;;;16.83;;
35364;SDS011;21464;48.112;11.530;2023-04-08T07:01:36;20.30;;;16.17;;
35364;SDS011;21464;48.112;11.530;2023-04-08T07:04:03;17.87;;;15.50;;
35364;SDS011;21464;48.112;11.530;2023-04-08T07:06:29;18.97;;;16.27;;
35364;SDS011;21464;48.112;11.530;2023-04-08T07:08:55;19.97;;;17.00;;
35364;SDS011;21464;48.112;11.530;2023-04-08T07:11:21;19.47;;;17.47;;
35364;SDS011;21464;48.112;11.530;2023-04-08T07:13:48;18.90;;;16.57;;
35364;SDS011;21464;48.112;11.530;2023-04-08T07:16:17;19.03;;;16.83;;
35364;SDS011;21464;48.112;11.530;2023-04-08T07:18:43;21.20;;;18.07;;
35364;SDS011;21464;48.112;11.530;2023-04-08T07:21:09;18.43;;;16.43;;
35364;SDS011;21464;48.112;11.530;2023-04-08T07:23:36;18.10;;;16.17;;
35364;SDS011;21464;48.112;11.530;2023-04-08T07:26:02;18.87;;;16.43;;
35364;SDS011;21464;48.112;11.530;2023-04-08T07:28:32;22.33;;;16.80;;
35364;SDS011;21464;48.112;11.530;2023-04-08T07:31:12;18.93;;;16.87;;
35364;SDS011;21464;48.112;11.530;2023-04-08T07:33:39;20.53;;;17.77;;
35364;SDS011;21464;48.112;11.530;2023-04-08T07:36:07;23.13;;;17.07;;
35364;SDS011;21464;48.112;11.530;2023-04-08T07:38:34;21.83;;;18.30;;
35364;SDS011;21464;48.112;11.530;2023-04-08T07:41:01;21.53;;;18.17;;
35364;SDS011;21464;48.112;11.530;2023-04-08T07:43:27;18.87;;;16.87;;
35364;SDS011;21464;48.112;11.530;2023-04-08T07:45:59;18.90;;;15.53;;
35364;SDS011;21464;48.112;11.530;2023-04-08T07:48:28;18.03;;;16.03;;
35364;SDS011;21464;48.112;11.530;2023-04-08T07:50:55;20.40;;;17.73;;
35364;SDS011;21464;48.112;11.530;2023-04-08T07:53:21;18.83;;;15.67;;
35364;SDS011;21464;48.112;11.530;2023-04-08T07:55:49;18.47;;;16.50;;
35364;SDS011;21464;48.112;11.530;2023-04-08T07:58:16;18.87;;;15.93;;
35364;SDS011;21464;48.112;11.530;2023-04-08T08:00:42;19.40;;;15.87;;
35364;SDS011;21464;48.112;11.530;2023-04-08T08:03:08;17.00;;;15.23;;
35364;SDS011;21464;48.112;11.530;2023-04-08T08:05:35;18.33;;;16.40;;
35364;SDS011;21464;48.112;11.530;2023-04-08T08:08:02;15.93;;;14.23;;
35364;SDS011;21464;48.112;11.530;2023-04-08T08:10:29;16.77;;;14.10;;
35364;SDS011;21464;48.112;11.530;2023-04-08T08:12:55;15.87;;;13.13;;
35364;SDS011;21464;48.112;11.530;2023-04-08T08:15:21;15.53;;;14.03;;
35364;SDS011;21464;48.112;11.530;2023-04-08T08:17:48;13.30;;;11.63;;
35364;SDS011;21464;48.112;11.530;2023-04-08T08:20:14;14.57;;;12.40;;
35364;SDS011;21464;48.112;11.530;2023-04-08T08:22:41;14.07;;;12.63;;
35364;SDS011;21464;48.112;11.530;2023-04-08T08:25:09;14.60;;;12.70;;
35364;SDS011;21464;48.112;11.530;2023-04-08T08:27:35;18.23;;;13.30;;
35364;SDS011;21464;48.112;11.530;2023-04-08T08:30:02;14.23;;;12.47;;
35364;SDS011;21464;48.112;11.530;2023-04-08T08:32:29;14.77;;;13.23;;
35364;SDS011;21464;48.112;11.530;2023-04-08T08:34:56;15.67;;;13.40;;
35364;SDS011;21464;48.112;11.530;2023-04-08T08:37:22;15.17;;;13.60;;
35364;SDS011;21464;48.112;11.530;2023-04-08T08:39:48;15.47;;;13.40;;
35364;SDS011;21464;48.112;11.530;2023-04-08T08:42:21;16.33;;;14.60;;
35364;SDS011;21464;48.112;11.530;2023-04-08T08:44:48;16.30;;;14.17;;
35364;SDS011;21464;48.112;11.530;2023-04-08T08:47:15;18.93;;;15.30;;
35364;SDS011;21464;48.112;11.530;2023-04-08T08:49:42;17.67;;;15.20;;
35364;SDS011;21464;48.112;11.530;2023-04-08T08:52:10;15.63;;;13.37;;
35364;SDS011;21464;48.112;11.530;2023-04-08T08:54:36;16.53;;;11.97;;
35364;SDS011;21464;48.112;11.530;2023-04-08T08:57:02;15.97;;;14.10;;
35364;SDS011;21464;48.112;11.530;2023-04-08T08:59:29;16.70;;;14.83;;
35364;SDS011;21464;48.112;11.530;2023-04-08T09:01:55;18.73;;;14.93;;
35364;SDS011;21464;48.112;11.530;2023-04-08T09:04:21;16.60;;;14.87;;
35364;SDS011;21464;48.112;11.530;2023-04-08T09:07:09;16.60;;;14.83;;
35364;SDS011;21464;48.112;11.530;2023-04-08T09:09:46;18.80;;;15.90;;
35364;SDS011;21464;48.112;11.530;2023-04-08T09:12:16;19.23;;;15.60;;
35364;SDS011;21464;48.112;11.530;2023-04-08T09:14:42;16.87;;;15.00;;
35364;SDS011;21464;48.112;11.530;2023-04-08T09:17:08;17.77;;;15.60;;
35364;SDS011;21464;48.112;11.530;2023-04-08T09:19:35;17.43;;;15.57;;
35364;SDS011;21464;48.112;11.530;2023-04-08T09:22:06;17.60;;;15.70;;
35364;SDS011;21464;48.112;11.530;2023-04-08T09:24:33;18.17;;;14.07;;
35364;SDS011;21464;48.112;11.530;2023-04-08T09:27:02;15.27;;;13.73;;
35364;SDS011;21464;48.112;11.530;2023-04-08T09:29:29;17.60;;;15.10;;
35364;SDS011;21464;48.112;11.530;2023-04-08T09:31:56;15.37;;;12.83;;
35364;SDS011;21464;48.112;11.530;2023-04-08T09:34:24;15.20;;;13.23;;
35364;SDS011;21464;48.112;11.530;2023-04-08T09:36:52;15.93;;;12.97;;
35364;SDS011;21464;48.112;11.530;2023-04-08T09:39:19;16.37;;;14.13;;
35364;SDS011;21464;48.112;11.530;2023-04-08T09:41:49;15.73;;;14.00;;
35364;SDS011;21464;48.112;11.530;2023-04-08T09:44:17;15.97;;;13.20;;
35364;SDS011;21464;48.112;11.530;2023-04-08T09:51:52;15.37;;;13.20;;
35364;SDS011;21464;48.112;11.530;2023-04-08T09:57:24;15.10;;;13.27;;
35364;SDS011;21464;48.112;11.530;2023-04-08T10:00:03;14.23;;;12.83;;
35364;SDS011;21464;48.112;11.530;2023-04-08T10:02:53;15.97;;;13.33;;
35364;SDS011;21464;48.112;11.530;2023-04-08T10:05:21;15.07;;;13.30;;
35364;SDS011;21464;48.112;11.530;2023-04-08T10:07:50;14.07;;;11.63;;
35364;SDS011;21464;48.112;11.530;2023-04-08T10:10:16;17.80;;;14.17;;
35364;SDS011;21464;48.112;11.530;2023-04-08T10:12:42;16.30;;;13.93;;
35364;SDS011;21464;48.112;11.530;2023-04-08T10:15:25;15.27;;;13.67;;
35364;SDS011;21464;48.112;11.530;2023-04-08T10:23:04;16.80;;;14.10;;
35364;SDS011;21464;48.112;11.530;2023-04-08T10:25:33;15.53;;;12.83;;
35364;SDS011;21464;48.112;11.530;2023-04-08T10:33:30;18.43;;;14.93;;
35364;SDS011;21464;48.112;11.530;2023-04-08T10:38:27;16.50;;;14.67;;
35364;SDS011;21464;48.112;11.530;2023-04-08T10:40:53;15.83;;;14.27;;
35364;SDS011;21464;48.112;11.530;2023-04-08T10:43:20;15.40;;;13.73;;
35364;SDS011;21464;48.112;11.530;2023-04-08T10:45:46;17.70;;;15.40;;
35364;SDS011;21464;48.112;11.530;2023-04-08T10:48:19;16.80;;;14.97;;
35364;SDS011;21464;48.112;11.530;2023-04-08T10:50:57;18.63;;;15.37;;
35364;SDS011;21464;48.112;11.530;2023-04-08T10:58:31;15.80;;;13.77;;
35364;SDS011;21464;48.112;11.530;2023-04-08T11:01:04;16.50;;;12.53;;
35364;SDS011;21464;48.112;11.530;2023-04-08T11:03:32;17.73;;;14.90;;
35364;SDS011;21464;48.112;11.530;2023-04-08T11:06:00;18.00;;;15.53;;
35364;SDS011;21464;48.112;11.530;2023-04-08T11:08:27;16.67;;;14.90;;
35364;SDS011;21464;48.112;11.530;2023-04-08T11:11:00;16.67;;;14.87;;
35364;SDS011;21464;48.112;11.530;2023-04-08T11:13:27;18.00;;;15.17;;
35364;SDS011;21464;48.112;11.530;2023-04-08T11:15:54;18.87;;;16.87;;
35364;SDS011;21464;48.112;11.530;2023-04-08T11:18:21;19.20;;;17.20;;
35364;SDS011;21464;48.112;11.530;2023-04-08T11:20:51;17.57;;;15.63;;
35364;SDS011;21464;48.112;11.530;2023-04-08T11:23:17;21.17;;;17.43;;
35364;SDS011;21464;48.112;11.530;2023-04-08T11:25:45;19.07;;;17.00;;
35364;SDS011;21464;48.112;11.530;2023-04-08T11:28:12;18.70;;;16.80;;
35364;SDS011;21464;48.112;11.530;2023-04-08T11:30:39;21.97;;;17.60;;
35364;SDS011;21464;48.112;11.530;2023-04-08T11:33:08;19.40;;;17.37;;
35364;SDS011;21464;48.112;11.530;2023-04-08T11:35:39;18.43;;;16.50;;
35364;SDS011;21464;48.112;11.530;2023-04-08T11:38:07;19.40;;;17.40;;
35364;SDS011;21464;48.112;11.530;2023-04-08T11:40:33;18.87;;;16.77;;
35364;SDS011;21464;48.112;11.530;2023-04-08T11:43:07;18.57;;;16.57;;
35364;SDS011;21464;48.112;11.530;2023-04-08T11:45:37;18.50;;;16.60;;
35364;SDS011;21464;48.112;11.530;2023-04-08T11:48:10;17.67;;;15.80;;
35364;SDS011;21464;48.112;11.530;2023-04-08T11:50:37;18.67;;;16.67;;
35364;SDS011;21464;48.112;11.530;2023-04-08T11:53:03;18.63;;;16.40;;
35364;SDS011;21464;48.112;11.530;2023-04-08T11:55:31;18.77;;;16.30;;
35364;SDS011;21464;48.112;11.530;2023-04-08T11:58:03;18.87;;;17.03;;
35364;SDS011;21464;48.112;11.530;2023-04-08T12:00:32;18.87;;;16.87;;
35364;SDS011;21464;48.112;11.530;2023-04-08T12:02:59;18.67;;;16.67;;
35364;SDS011;21464;48.112;11.530;2023-04-08T12:05:25;18.83;;;16.40;;
35364;SDS011;21464;48.112;11.530;2023-04-08T12:07:51;19.73;;;15.93;;
35364;SDS011;21464;48.112;11.530;2023-04-08T12:10:17;19.17;;;16.43;;
35364;SDS011;21464;48.112;11.530;2023-04-08T12:12:44;18.17;;;16.27;;
35364;SDS011;21464;48.112;11.530;2023-04-08T12:15:10;18.23;;;16.10;;
35364;SDS011;21464;48.112;11.530;2023-04-08T12:17:36;18.40;;;16.13;;
35364;SDS011;21464;48.112;11.530;2023-04-08T12:20:05;18.87;;;17.07;;
35364;SDS011;21464;48.112;11.530;2023-04-08T12:22:32;17.97;;;16.17;;
35364;SDS011;21464;48.112;11.530;2023-04-08T12:24:58;20.23;;;18.03;;
35364;SDS011;21464;48.112;11.530;2023-04-08T12:27:25;19.47;;;16.50;;
35364;SDS011;21464;48.112;11.530;2023-04-08T12:29:51;20.03;;;17.90;;
35364;SDS011;21464;48.112;11.530;2023-04-08T12:32:18;18.87;;;17.00;;
35364;SDS011;21464;48.112;11.530;2023-04-08T12:34:44;17.27;;;15.23;;
35364;SDS011;21464;48.112;11.530;2023-04-08T12:37:10;17.40;;;15.27;;
35364;SDS011;21464;48.112;11.530;2023-04-08T12:39:36;16.77;;;14.97;;
35364;SDS011;21464;48.112;11.530;2023-04-08T12:42:03;17.53;;;15.73;;
35364;SDS011;21464;48.112;11.530;2023-04-08T12:44:29;19.33;;;16.97;;
35364;SDS011;21464;48.112;11.530;2023-04-08T12:46:55;19.03;;;16.50;;
35364;SDS011;21464;48.112;11.530;2023-04-08T12:49:24;17.20;;;15.40;;
35364;SDS011;21464;48.112;11.530;2023-04-08T12:51:50;16.83;;;14.10;;
35364;SDS011;21464;48.112;11.530;2023-04-08T12:54:17;16.70;;;14.90;;
35364;SDS011;21464;48.112;11.530;2023-04-08T12:56:43;15.33;;;13.20;;
35364;SDS011;21464;48.112;11.530;2023-04-08T12:59:09;15.93;;;14.33;;
35364;SDS011;21464;48.112;11.530;2023-04-08T13:01:36;16.27;;;14.57;;
35364;SDS011;21464;48.112;11.530;2023-04-08T13:04:02;16.43;;;14.60;;
35364;SDS011;21464;48.112;11.530;2023-04-08T13:06:28;16.77;;;14.30;;
35364;SDS011;21464;48.112;11.530;2023-04-08T13:08:54;15.73;;;14.13;;
35364;SDS011;21464;48.112;11.530;2023-04-08T13:11:21;15.93;;;13.73;;
35364;SDS011;21464;48.112;11.530;2023-04-08T13:13:47;15.63;;;13.80;;
35364;SDS011;21464;48.112;11.530;2023-04-08T13:16:13;14.67;;;13.17;;
35364;SDS011;21464;48.112;11.530;2023-04-08T13:18:40;16.17;;;14.47;;
35364;SDS011;21464;48.112;11.530;2023-04-08T13:21:06;16.33;;;14.63;;
35364;SDS011;21464;48.112;11.530;2023-04-08T13:23:33;15.43;;;13.73;;
35364;SDS011;21464;48.112;11.530;2023-04-08T13:26:00;14.20;;;12.77;;
35364;SDS011;21464;48.112;11.530;2023-04-08T13:28:26;15.47;;;13.33;;
35364;SDS011;21464;48.112;11.530;2023-04-08T13:30:52;16.07;;;13.80;;
35364;SDS011;21464;48.112;11.530;2023-04-08T13:33:20;15.03;;;13.43;;
35364;SDS011;21464;48.112;11.530;2023-04-08T13:35:47;15.43;;;13.83;;
35364;SDS011;21464;48.112;11.530;2023-04-08T13:38:13;18.00;;;14.33;;
35364;SDS011;21464;48.112;11.530;2023-04-08T13:40:39;17.03;;;15.23;;
35364;SDS011;21464;48.112;11.530;2023-04-08T13:43:05;14.33;;;12.93;;
35364;SDS011;21464;48.112;11.530;2023-04-08T13:45:33;15.10;;;13.47;;
35364;SDS011;21464;48.112;11.530;2023-04-08T13:47:59;14.93;;;13.33;;
35364;SDS011;21464;48.112;11.530;2023-04-08T13:50:25;15.20;;;13.70;;
35364;SDS011;21464;48.112;11.530;2023-04-08T13:52:51;14.50;;;13.00;;
35364;SDS011;21464;48.112;11.530;2023-04-08T13:55:18;16.50;;;13.77;;
35364;SDS011;21464;48.112;11.530;2023-04-08T13:57:44;13.97;;;12.53;;
35364;SDS011;21464;48.112;11.530;2023-04-08T14:00:10;13.70;;;12.30;;
35364;SDS011;21464;48.112;11.530;2023-04-08T14:02:37;14.60;;;13.10;;
35364;SDS011;21464;48.112;11.530;2023-04-08T14:05:04;13.67;;;11.87;;
35364;SDS011;21464;48.112;11.530;2023-04-08T14:07:30;13.40;;;12.03;;
35364;SDS011;21464;48.112;11.530;2023-04-08T14:09:56;14.13;;;12.73;;
35364;SDS011;21464;48.112;11.530;2023-04-08T14:12:23;14.33;;;12.30;;
35364;SDS011;21464;48.112;11.530;2023-04-08T14:14:49;13.57;;;12.27;;
35364;SDS011;21464;48.112;11.530;2023-04-08T14:17:15;13.57;;;12.27;;
35364;SDS011;21464;48.112;11.530;2023-04-08T14:19:41;12.67;;;11.37;;
35364;SDS011;21464;48.112;11.530;2023-04-08T14:22:08;12.80;;;11.60;;
35364;SDS011;21464;48.112;11.530;2023-04-08T14:24:34;14.43;;;12.90;;
35364;SDS011;21464;48.112;11.530;2023-04-08T14:27:00;14.00;;;12.63;;
35364;SDS011;21464;48.112;11.530;2023-04-08T14:29:27;13.73;;;12.30;;
35364;SDS011;21464;48.112;11.530;2023-04-08T14:31:53;13.67;;;12.27;;
35364;SDS011;21464;48.112;11.530;2023-04-08T14:34:19;13.67;;;12.23;;
35364;SDS011;21464;48.112;11.530;2023-04-08T14:36:45;14.83;;;13.17;;
35364;SDS011;21464;48.112;11.530;2023-04-08T14:39:12;12.97;;;11.73;;
35364;SDS011;21464;48.112;11.530;2023-04-08T14:41:38;13.07;;;11.63;;
35364;SDS011;21464;48.112;11.530;2023-04-08T14:44:05;12.70;;;11.40;;
35364;SDS011;21464;48.112;11.530;2023-04-08T14:46:31;13.67;;;12.23;;
35364;SDS011;21464;48.112;11.530;2023-04-08T14:48:58;13.73;;;12.37;;